Time;durP1;ratioP1;P1;durP2;ratioP2;P2;SDS_P1;SDS_P2;PMS_P1;PMS_P2;Temp;Humidity;BMP_temperature;BMP_pressure;BME280_temperature;BME280_humidity;BME280_pressure;Samples;Min_cycle;Max_cycle;Signal;HPM_P1;HPM_P2
2021/09/10 00:01:25;;;;;;;;;;;;;;;21.36;100.00;98135.38;5078690;28;19924;-85
2021/09/10 00:03:52;;;;;;;;;;;;;;;21.44;100.00;98144.16;5095011;28;20314;-86
2021/09/10 00:06:19;;;;;;;;;;;;;;;21.51;100.00;98140.78;5060568;28;19925;-86
2021/09/10 00:08:46;;;;;;;;;;;;;;;21.16;100.00;98144.16;5075609;28;20679;-86
2021/09/10 00:11:13;;;;;;;;;;;;;;;20.71;100.00;98151.09;5072958;28;19924;-86
2021/09/10 00:13:41;;;;;;;;;;;;;;;21.33;100.00;98152.69;5074728;28;20307;-86
2021/09/10 00:16:08;;;;;;;;;;;;;;;21.49;100.00;98154.75;5088074;28;19925;-86
2021/09/10 00:18:35;;;;;;;;;;;;;;;21.58;100.00;98145.94;5094771;28;20057;-86
2021/09/10 00:21:02;;;;;;;;;;;;;;;21.65;100.00;98151.09;5083124;28;20398;-86
2021/09/10 00:23:29;;;;;;;;;;;;;;;21.58;100.00;98145.94;5072312;28;19924;-86
2021/09/10 00:26:00;;;;;;;;;;;;;;;21.69;100.00;98145.91;5058657;28;19924;-86
2021/09/10 00:28:27;;;;;;;;;;;;;;;21.36;100.00;98140.28;5088674;28;19928;-86
2021/09/10 00:31:00;;;;;;;;;;;;;;;21.34;100.00;98154.25;5056964;28;19931;-86
2021/09/10 00:33:28;;;;;;;;;;;;;;;21.42;100.00;98149.56;5077756;28;20010;-86
2021/09/10 00:35:56;;;;;;;;;;;;;;;21.47;100.00;98151.63;5095789;28;19924;-86
2021/09/10 00:38:23;;;;;;;;;;;;;;;20.96;100.00;98152.19;5057699;28;19931;-86
2021/09/10 00:40:50;;;;;;;;;;;;;;;21.01;100.00;98148.56;5071938;28;19928;-86
2021/09/10 00:43:17;;;;;;;;;;;;;;;21.25;100.00;98158.13;5063015;28;19928;-86
2021/09/10 00:45:45;;;;;;;;;;;;;;;21.25;100.00;98151.66;5055928;28;19981;-86
2021/09/10 00:48:13;;;;;;;;;;;;;;;21.35;100.00;98161.47;5074346;28;20287;-86
2021/09/10 00:50:41;;;;;;;;;;;;;;;21.48;100.00;98155.28;5054835;28;19949;-86
2021/09/10 00:53:08;;;;;;;;;;;;;;;21.55;100.00;98149.84;5080150;28;19932;-86
2021/09/10 00:55:36;;;;;;;;;;;;;;;21.60;100.00;98149.03;5061018;28;19924;-86
2021/09/10 00:58:03;;;;;;;;;;;;;;;21.69;100.00;98148.00;5079927;28;19931;-86
2021/09/10 01:00:30;;;;;;;;;;;;;;;21.66;100.00;98155.47;5077864;28;19967;-85
2021/09/10 01:02:58;;;;;;;;;;;;;;;21.47;100.00;98148.81;5077143;28;19928;-85
2021/09/10 01:05:25;;;;;;;;;;;;;;;21.55;100.00;98146.19;5077440;28;20421;-85
2021/09/10 01:07:53;;;;;;;;;;;;;;;21.65;100.00;98151.09;5095130;28;20024;-85
2021/09/10 01:10:20;;;;;;;;;;;;;;;21.66;100.00;98138.41;5076205;28;19928;-85
2021/09/10 01:12:49;;;;;;;;;;;;;;;21.67;100.00;98147.72;5093155;28;19928;-85
2021/09/10 01:15:17;;;;;;;;;;;;;;;21.45;100.00;98154.22;5058751;28;19925;-85
2021/09/10 01:17:44;;;;;;;;;;;;;;;21.42;100.00;98146.72;5072609;28;20364;-85
2021/09/10 01:20:11;;;;;;;;;;;;;;;21.55;100.00;98147.00;5092224;28;19924;-85
2021/09/10 01:22:38;;;;;;;;;;;;;;;21.53;100.00;98143.88;5093736;28;20333;-85
2021/09/10 01:25:11;;;;;;;;;;;;;;;21.34;100.00;98151.41;5057384;28;20452;-86
2021/09/10 01:27:39;;;;;;;;;;;;;;;21.55;100.00;98147.00;5083588;28;19928;-86
2021/09/10 01:30:07;;;;;;;;;;;;;;;21.62;100.00;98145.66;5094792;28;19955;-86
2021/09/10 01:32:34;;;;;;;;;;;;;;;21.55;100.00;98149.84;5079627;28;20276;-86
2021/09/10 01:35:01;;;;;;;;;;;;;;;21.61;100.00;98150.59;5093671;28;19928;-86
2021/09/10 01:37:28;;;;;;;;;;;;;;;21.58;100.00;98145.94;5057308;28;19932;-86
2021/09/10 01:39:56;;;;;;;;;;;;;;;21.69;100.00;98145.16;5065582;28;19924;-86
2021/09/10 01:42:23;;;;;;;;;;;;;;;21.70;100.00;98144.63;5094486;28;19928;-86
2021/09/10 01:44:50;;;;;;;;;;;;;;;21.70;100.00;98147.47;5094455;28;19924;-84
2021/09/10 01:47:17;;;;;;;;;;;;;;;21.54;100.00;98151.09;5076368;28;19925;-86
2021/09/10 01:49:44;;;;;;;;;;;;;;;21.50;100.00;98147.75;5084031;28;19925;-86
2021/09/10 01:53:52;;;;;;;;;;;;;;;21.66;100.00;98149.78;5090093;28;19978;-86
2021/09/10 01:56:19;;;;;;;;;;;;;;;21.42;100.00;98155.25;5057294;28;19925;-85
2021/09/10 01:58:49;;;;;;;;;;;;;;;21.47;100.00;98156.53;5079035;28;19924;-86
2021/09/10 02:01:20;;;;;;;;;;;;;;;21.54;100.00;98156.78;5068189;28;19925;-86
2021/09/10 02:03:47;;;;;;;;;;;;;;;21.52;100.00;98161.44;5058649;28;19924;-86
2021/09/10 02:06:15;;;;;;;;;;;;;;;21.56;100.00;98159.13;5058243;28;19934;-86
2021/09/10 02:08:43;;;;;;;;;;;;;;;21.49;100.00;98171.81;5019323;28;20070;-86
2021/09/10 02:11:10;;;;;;;;;;;;;;;21.57;100.00;98155.75;5035383;28;19925;-86
2021/09/10 02:13:38;;;;;;;;;;;;;;;21.71;100.00;98165.28;5035144;28;19924;-86
2021/09/10 02:16:05;;;;;;;;;;;;;;;21.43;100.00;98168.94;5080867;28;19935;-86
2021/09/10 02:18:32;;;;;;;;;;;;;;;21.34;100.00;98171.31;5072472;28;19925;-85
2021/09/10 02:20:59;;;;;;;;;;;;;;;21.12;100.00;98168.44;5083927;28;19924;-85
2021/09/10 02:23:27;;;;;;;;;;;;;;;20.90;100.00;98174.09;5082031;28;19960;-85
2021/09/10 02:25:54;;;;;;;;;;;;;;;20.73;100.00;98174.06;5076448;28;19978;-85
2021/09/10 02:28:21;;;;;;;;;;;;;;;20.67;100.00;98181.78;5084596;28;19925;-84
2021/09/10 02:30:48;;;;;;;;;;;;;;;20.72;100.00;98183.09;5047784;28;19924;-85
2021/09/10 02:33:15;;;;;;;;;;;;;;;20.84;100.00;98187.50;5085554;28;20375;-85
2021/09/10 02:35:42;;;;;;;;;;;;;;;21.12;100.00;98183.44;5061922;28;19931;-86
2021/09/10 02:38:10;;;;;;;;;;;;;;;21.27;100.00;98177.47;5081336;28;19924;-85
2021/09/10 02:40:37;;;;;;;;;;;;;;;21.31;100.00;98178.00;5080584;28;20037;-85
2021/09/10 02:43:04;;;;;;;;;;;;;;;21.31;100.00;98178.00;5062319;28;19929;-86
2021/09/10 02:45:32;;;;;;;;;;;;;;;21.32;100.00;98176.72;5070386;28;19935;-86
2021/09/10 02:47:59;;;;;;;;;;;;;;;21.27;100.00;98177.47;5067805;28;20291;-86
2021/09/10 02:50:26;;;;;;;;;;;;;;;21.44;100.00;98178.25;5071681;28;20016;-85
2021/09/10 02:52:53;;;;;;;;;;;;;;;21.45;100.00;98176.94;5071428;28;20292;-85
2021/09/10 02:55:20;;;;;;;;;;;;;;;21.28;100.00;98174.13;5042350;28;19924;-86
2021/09/10 02:57:47;;;;;;;;;;;;;;;21.38;100.00;98175.44;5054465;28;19924;-86
2021/09/10 03:00:18;;;;;;;;;;;;;;;21.40;100.00;98177.75;5084476;28;19924;-86
2021/09/10 03:02:46;;;;;;;;;;;;;;;21.38;100.00;98180.31;5081719;28;19928;-86
2021/09/10 03:05:13;;;;;;;;;;;;;;;21.16;100.00;98171.78;5031875;28;19932;-86
2021/09/10 03:07:41;;;;;;;;;;;;;;;21.33;100.00;98172.56;5050886;28;19928;-86
2021/09/10 03:10:08;;;;;;;;;;;;;;;21.20;100.00;98175.16;5054143;28;20335;-86
2021/09/10 03:12:36;;;;;;;;;;;;;;;21.37;100.00;98170.25;5054722;28;20424;-86
2021/09/10 03:15:05;;;;;;;;;;;;;;;21.32;100.00;98174.66;5054305;28;20375;-86
2021/09/10 03:17:32;;;;;;;;;;;;;;;21.28;100.00;98168.44;5059468;28;20340;-86
2021/09/10 03:19:59;;;;;;;;;;;;;;;21.29;100.00;98172.84;5053949;28;20297;-86
2021/09/10 03:22:27;;;;;;;;;;;;;;;21.34;100.00;98172.06;5020818;28;19931;-86
2021/09/10 03:24:54;;;;;;;;;;;;;;;21.25;100.00;98174.38;5054586;28;20454;-86
2021/09/10 03:27:21;;;;;;;;;;;;;;;21.28;100.00;98173.38;5053437;28;20380;-86
2021/09/10 03:29:48;;;;;;;;;;;;;;;21.39;100.00;98176.19;5060577;28;19951;-86
2021/09/10 03:32:18;;;;;;;;;;;;;;;21.33;100.00;98172.56;5053528;28;19929;-86
2021/09/10 03:34:44;;;;;;;;;;;;;;;21.20;100.00;98172.31;5067440;28;20300;-86
2021/09/10 03:37:13;;;;;;;;;;;;;;;21.23;100.00;98172.06;5043872;28;19947;-86
2021/09/10 03:39:40;;;;;;;;;;;;;;;21.33;100.00;98169.72;5061284;28;19925;-86
2021/09/10 03:42:08;;;;;;;;;;;;;;;21.33;100.00;98173.34;5053119;28;19958;-86
2021/09/10 03:44:35;;;;;;;;;;;;;;;21.35;100.00;98172.84;5053360;28;19925;-86
2021/09/10 03:47:05;;;;;;;;;;;;;;;21.34;100.00;98174.13;5053175;28;19960;-86
2021/09/10 03:49:33;;;;;;;;;;;;;;;21.36;100.00;98168.69;5020462;28;20019;-86
2021/09/10 03:52:01;;;;;;;;;;;;;;;21.20;100.00;98173.09;5055707;28;20015;-86
2021/09/10 03:54:28;;;;;;;;;;;;;;;21.17;100.00;98173.34;5030812;28;19929;-86
2021/09/10 03:56:55;;;;;;;;;;;;;;;21.16;100.00;98174.63;5053905;28;19968;-86
2021/09/10 03:59:22;;;;;;;;;;;;;;;21.30;100.00;98182.13;5053145;28;19989;-86
2021/09/10 04:01:50;;;;;;;;;;;;;;;21.29;100.00;98175.69;5053144;28;20295;-86
2021/09/10 04:04:18;;;;;;;;;;;;;;;21.32;100.00;98179.56;5023055;28;19925;-86
2021/09/10 04:06:46;;;;;;;;;;;;;;;21.44;100.00;98186.78;5066479;28;19924;-86
2021/09/10 04:09:14;;;;;;;;;;;;;;;21.35;100.00;98189.88;5051335;28;20299;-86
2021/09/10 04:11:41;;;;;;;;;;;;;;;21.31;100.00;98189.38;5064862;28;20395;-86
2021/09/10 04:14:08;;;;;;;;;;;;;;;21.36;100.00;98188.59;5042073;28;19924;-86
2021/09/10 04:16:36;;;;;;;;;;;;;;;21.45;100.00;98191.16;5045384;28;19931;-86
2021/09/10 04:19:03;;;;;;;;;;;;;;;21.42;100.00;98189.34;5033937;28;19925;-86
2021/09/10 04:21:30;;;;;;;;;;;;;;;21.42;100.00;98189.34;5052623;28;19925;-86
2021/09/10 04:23:58;;;;;;;;;;;;;;;21.46;100.00;98184.19;5053495;28;19960;-86
2021/09/10 04:26:25;;;;;;;;;;;;;;;21.44;100.00;98192.47;5035701;28;19929;-86
2021/09/10 04:28:52;;;;;;;;;;;;;;;21.51;100.00;98183.41;5019609;28;20478;-86
2021/09/10 04:31:20;;;;;;;;;;;;;;;21.46;100.00;98187.03;5053508;28;20384;-86
2021/09/10 04:33:47;;;;;;;;;;;;;;;21.45;100.00;98188.31;5058941;28;19928;-86
2021/09/10 04:36:14;;;;;;;;;;;;;;;21.48;100.00;98184.44;5073424;28;19928;-86
2021/09/10 04:38:42;;;;;;;;;;;;;;;21.51;100.00;98186.25;5066745;28;19933;-86
2021/09/10 04:41:09;;;;;;;;;;;;;;;21.42;100.00;98186.50;5051977;28;19925;-86
2021/09/10 04:43:36;;;;;;;;;;;;;;;21.50;100.00;98187.56;5019211;28;20065;-86
2021/09/10 04:46:03;;;;;;;;;;;;;;;21.49;100.00;98183.16;5035536;28;19924;-86
2021/09/10 04:48:31;;;;;;;;;;;;;;;21.29;100.00;98180.59;5053175;28;20000;-86
2021/09/10 04:50:58;;;;;;;;;;;;;;;21.35;100.00;98189.88;5032079;28;19925;-86
2021/09/10 04:53:25;;;;;;;;;;;;;;;21.18;100.00;98197.63;5048686;28;19925;-86
2021/09/10 04:55:52;;;;;;;;;;;;;;;21.26;100.00;98192.97;5025634;28;19924;-86
2021/09/10 04:58:21;;;;;;;;;;;;;;;21.24;100.00;98184.19;5042674;28;20300;-86
2021/09/10 05:00:48;;;;;;;;;;;;;;;21.31;100.00;98190.13;5049595;28;19928;-86
2021/09/10 05:03:15;;;;;;;;;;;;;;;21.38;100.00;98183.94;5051865;28;19935;-86
2021/09/10 05:05:42;;;;;;;;;;;;;;;21.33;100.00;98193.25;5065654;28;19932;-86
2021/09/10 05:08:09;;;;;;;;;;;;;;;21.33;100.00;98183.94;5018679;28;19925;-86
2021/09/10 05:10:36;;;;;;;;;;;;;;;21.25;100.00;98197.09;5051053;28;20013;-86
2021/09/10 05:13:03;;;;;;;;;;;;;;;21.23;100.00;98189.09;5064581;28;20023;-86
2021/09/10 05:15:30;;;;;;;;;;;;;;;21.31;100.00;98195.81;5049079;28;20365;-86
2021/09/10 05:17:57;;;;;;;;;;;;;;;21.24;100.00;98201.25;5018581;28;20294;-86
2021/09/10 05:20:25;;;;;;;;;;;;;;;21.19;100.00;98202.00;5035214;28;19975;-86
2021/09/10 05:22:54;;;;;;;;;;;;;;;21.28;100.00;98199.69;5051265;28;19925;-86
2021/09/10 05:25:22;;;;;;;;;;;;;;;21.26;100.00;98198.66;5052667;28;20011;-86
2021/09/10 05:27:50;;;;;;;;;;;;;;;21.24;100.00;98204.88;5052293;28;20380;-86
2021/09/10 05:30:17;;;;;;;;;;;;;;;21.23;100.00;98205.38;5015125;28;19925;-86
2021/09/10 05:32:44;;;;;;;;;;;;;;;21.23;100.00;98199.69;5047113;28;19936;-86
2021/09/10 05:35:11;;;;;;;;;;;;;;;21.27;100.00;98206.69;5000221;28;20291;-86
2021/09/10 05:37:38;;;;;;;;;;;;;;;21.30;100.00;98205.63;5054075;28;20295;-86
2021/09/10 05:40:06;;;;;;;;;;;;;;;21.17;100.00;98199.69;5051620;28;19933;-86
2021/09/10 05:42:33;;;;;;;;;;;;;;;21.26;100.00;98204.34;5034841;28;19925;-83
2021/09/10 05:45:00;;;;;;;;;;;;;;;21.24;100.00;98212.59;5048426;28;19925;-86
2021/09/10 05:47:27;;;;;;;;;;;;;;;21.29;100.00;98209.78;5011095;28;19925;-87
2021/09/10 05:49:55;;;;;;;;;;;;;;;21.19;100.00;98222.66;5075323;28;20019;-87
2021/09/10 05:52:23;;;;;;;;;;;;;;;21.29;100.00;98226.81;5050942;28;19929;-86
2021/09/10 05:54:50;;;;;;;;;;;;;;;21.22;100.00;98232.22;5008920;28;19932;-85
2021/09/10 05:57:17;;;;;;;;;;;;;;;21.31;100.00;98217.78;5049744;28;19925;-85
2021/09/10 05:59:44;;;;;;;;;;;;;;;21.33;100.00;98226.56;5034361;28;19929;-85
2021/09/10 06:02:11;;;;;;;;;;;;;;;21.37;100.00;98221.41;5049700;28;19924;-85
2021/09/10 06:04:39;;;;;;;;;;;;;;;21.39;100.00;98227.31;5050864;28;19932;-85
2021/09/10 06:07:06;;;;;;;;;;;;;;;21.40;100.00;98220.38;5034487;28;19982;-87
2021/09/10 06:09:33;;;;;;;;;;;;;;;21.34;100.00;98222.44;5052402;28;19932;-90
2021/09/10 06:12:00;;;;;;;;;;;;;;;21.35;100.00;98224.75;5042430;28;19971;-89
2021/09/10 06:14:27;;;;;;;;;;;;;;;21.36;100.00;98231.97;5019803;28;19925;-91
2021/09/10 06:16:55;;;;;;;;;;;;;;;21.45;100.00;98230.19;5027737;28;19988;-90
2021/09/10 06:19:22;;;;;;;;;;;;;;;21.38;100.00;98234.31;5027695;28;19924;-90
2021/09/10 06:21:49;;;;;;;;;;;;;;;21.40;100.00;98241.03;4999941;28;19925;-91
2021/09/10 06:24:16;;;;;;;;;;;;;;;21.48;100.00;98240.53;5031687;28;19936;-90
2021/09/10 06:26:44;;;;;;;;;;;;;;;21.49;100.00;98245.69;5022764;28;19978;-90
2021/09/10 06:29:12;;;;;;;;;;;;;;;21.47;100.00;98245.41;5032751;28;20295;-91
2021/09/10 06:31:40;;;;;;;;;;;;;;;21.47;100.00;98248.25;5052289;28;19929;-91
2021/09/10 06:34:07;;;;;;;;;;;;;;;21.46;100.00;98252.41;5036180;28;19990;-91
2021/09/10 06:36:35;;;;;;;;;;;;;;;21.51;100.00;98254.44;5019116;28;19925;-90
2021/09/10 06:39:02;;;;;;;;;;;;;;;21.50;100.00;98260.66;5048348;28;20300;-91
2021/09/10 06:41:29;;;;;;;;;;;;;;;21.40;100.00;98257.31;5003515;28;19925;-90
2021/09/10 06:43:57;;;;;;;;;;;;;;;21.41;100.00;98267.38;5045938;28;19939;-90
2021/09/10 06:46:24;;;;;;;;;;;;;;;21.51;100.00;98268.66;5046765;28;19932;-90
2021/09/10 06:48:52;;;;;;;;;;;;;;;21.52;100.00;98266.59;5060680;28;19924;-90
2021/09/10 06:51:19;;;;;;;;;;;;;;;21.49;100.00;98268.44;5047927;28;19929;-90
2021/09/10 06:53:46;;;;;;;;;;;;;;;21.51;100.00;98271.50;5069516;28;19929;-90
2021/09/10 06:56:13;;;;;;;;;;;;;;;21.60;100.00;98273.34;5033193;28;19925;-90
2021/09/10 06:58:40;;;;;;;;;;;;;;;21.55;100.00;98271.25;5022711;28;19925;-90
2021/09/10 07:01:08;;;;;;;;;;;;;;;21.58;100.00;98271.00;5055770;28;19987;-90
2021/09/10 07:03:35;;;;;;;;;;;;;;;21.26;100.00;98264.75;5055589;28;19928;-90
2021/09/10 07:06:02;;;;;;;;;;;;;;;20.95;100.00;98270.66;5039065;28;19951;-90
2021/09/10 07:08:32;;;;;;;;;;;;;;;20.91;100.00;98277.84;5022685;28;19971;-91
2021/09/10 07:11:01;;;;;;;;;;;;;;;21.08;100.00;98282.28;5019368;28;19925;-90
2021/09/10 07:13:29;;;;;;;;;;;;;;;21.27;100.00;98279.75;5030492;28;19932;-90
2021/09/10 07:15:57;;;;;;;;;;;;;;;21.28;100.00;98275.66;5019106;28;19929;-90
2021/09/10 07:18:24;;;;;;;;;;;;;;;21.24;100.00;98292.16;5041904;28;19948;-90
2021/09/10 07:20:51;;;;;;;;;;;;;;;21.18;100.00;98285.69;5032776;28;20012;-90
2021/09/10 07:23:19;;;;;;;;;;;;;;;21.33;100.00;98292.69;5017235;28;20280;-90
2021/09/10 07:25:46;;;;;;;;;;;;;;;21.43;100.00;98293.97;5035770;28;20024;-90
2021/09/10 07:28:13;;;;;;;;;;;;;;;21.46;100.00;98289.34;5021728;28;19925;-90
2021/09/10 07:30:40;;;;;;;;;;;;;;;21.42;100.00;98285.97;5005967;28;20406;-90
2021/09/10 07:33:07;;;;;;;;;;;;;;;21.38;100.00;98297.59;5038341;28;19983;-90
2021/09/10 07:35:35;;;;;;;;;;;;;;;21.51;100.00;98299.16;5038787;28;20069;-90
2021/09/10 07:38:02;;;;;;;;;;;;;;;21.48;100.00;98303.03;5021894;28;19925;-90
2021/09/10 07:40:29;;;;;;;;;;;;;;;21.50;100.00;98298.38;5018617;28;19929;-90
2021/09/10 07:42:57;;;;;;;;;;;;;;;21.57;100.00;98303.53;5018647;28;19969;-90
2021/09/10 07:45:24;;;;;;;;;;;;;;;21.63;100.00;98309.25;5024276;28;19924;-90
2021/09/10 07:47:52;;;;;;;;;;;;;;;21.22;100.00;98317.44;5037013;28;20024;-90
2021/09/10 07:50:19;;;;;;;;;;;;;;;20.97;100.00;98313.53;5005556;28;19925;-89
2021/09/10 07:52:49;;;;;;;;;;;;;;;21.12;100.00;98313.28;5038843;28;20380;-91
2021/09/10 07:55:16;;;;;;;;;;;;;;;21.30;100.00;98312.81;5053635;28;19928;-90
2021/09/10 07:57:43;;;;;;;;;;;;;;;21.35;100.00;98314.91;5033912;28;19931;-90
2021/09/10 08:00:11;;;;;;;;;;;;;;;21.23;100.00;98319.00;5055668;28;19925;-90
2021/09/10 08:02:38;;;;;;;;;;;;;;;21.23;100.00;98319.00;5021388;28;19924;-90
2021/09/10 08:05:06;;;;;;;;;;;;;;;21.42;100.00;98307.94;5038187;28;19924;-89
2021/09/10 08:07:33;;;;;;;;;;;;;;;21.48;100.00;98312.31;5036469;28;19995;-90
2021/09/10 08:10:00;;;;;;;;;;;;;;;21.36;100.00;98322.13;5005366;28;20330;-90
2021/09/10 08:12:28;;;;;;;;;;;;;;;21.42;100.00;98319.31;5051433;28;20269;-90
2021/09/10 08:14:56;;;;;;;;;;;;;;;21.57;100.00;98323.44;5038042;28;19931;-90
2021/09/10 08:17:23;;;;;;;;;;;;;;;21.69;100.00;98327.84;5021054;28;20407;-90
2021/09/10 08:19:50;;;;;;;;;;;;;;;21.62;100.00;98328.38;5020996;28;20443;-90
2021/09/10 08:22:18;;;;;;;;;;;;;;;21.66;100.00;98328.88;5037624;28;19929;-90
2021/09/10 08:24:54;;;;;;;;;;;;;;;21.65;100.00;98332.22;5054470;28;19971;-91
2021/09/10 08:27:21;;;;;;;;;;;;;;;21.67;100.00;98332.50;5021227;28;20399;-90
2021/09/10 08:29:50;;;;;;;;;;;;;;;21.62;100.00;98336.09;5037693;28;20411;-90
2021/09/10 08:32:18;;;;;;;;;;;;;;;21.87;100.00;98344.41;5037322;28;20009;-90
2021/09/10 08:34:45;;;;;;;;;;;;;;;21.87;100.00;98344.41;5043041;28;19925;-91
2021/09/10 08:37:12;;;;;;;;;;;;;;;21.97;100.00;98342.88;5040618;28;19933;-90
2021/09/10 08:39:39;;;;;;;;;;;;;;;21.98;100.00;98333.03;5024018;28;19940;-90
2021/09/10 08:42:07;;;;;;;;;;;;;;;22.03;100.00;98335.13;5001332;28;19929;-91
2021/09/10 08:44:37;;;;;;;;;;;;;;;22.11;100.00;98336.16;5028813;28;20402;-89
2021/09/10 08:47:04;;;;;;;;;;;;;;;22.09;100.00;98337.94;5037493;28;20372;-85
2021/09/10 08:49:35;;;;;;;;;;;;;;;22.35;100.00;98342.06;5049989;28;20295;-86
2021/09/10 08:52:02;;;;;;;;;;;;;;;22.14;100.00;98340.81;5028106;28;19925;-87
2021/09/10 08:54:30;;;;;;;;;;;;;;;22.03;100.00;98343.66;5024077;28;20280;-87
2021/09/10 08:57:05;;;;;;;;;;;;;;;22.28;100.00;98341.81;5053142;28;19935;-87
2021/09/10 08:59:39;;;;;;;;;;;;;;;22.02;100.00;98344.97;5022508;28;19925;-87
2021/09/10 09:02:06;;;;;;;;;;;;;;;22.00;100.00;98346.75;5047792;28;20426;-83
2021/09/10 09:04:35;;;;;;;;;;;;;;;22.22;100.00;98347.50;5036546;28;19929;-82
2021/09/10 09:07:04;;;;;;;;;;;;;;;21.94;100.00;98349.59;5053333;28;20020;-83
2021/09/10 09:09:34;;;;;;;;;;;;;;;22.01;100.00;98354.00;5053822;28;19986;-82
2021/09/10 09:12:21;;;;;;;;;;;;;;;22.06;100.00;98350.38;5046790;28;19929;-82
2021/09/10 09:14:55;;;;;;;;;;;;;;;21.78;100.00;98353.22;5048224;28;19971;-83
2021/09/10 09:17:29;;;;;;;;;;;;;;;21.69;100.00;98356.28;5052872;28;19931;-82
2021/09/10 09:20:15;;;;;;;;;;;;;;;21.83;100.00;98355.28;5073386;28;19928;-82
2021/09/10 09:23:08;;;;;;;;;;;;;;;22.06;100.00;98362.53;5053809;28;20276;-83
2021/09/10 09:25:37;;;;;;;;;;;;;;;21.87;100.00;98358.63;5049365;28;20391;-82
2021/09/10 09:28:22;;;;;;;;;;;;;;;21.82;100.00;98361.50;5064366;28;19925;-82
2021/09/10 09:30:53;;;;;;;;;;;;;;;21.35;100.00;98366.84;5055939;28;19929;-82
2021/09/10 09:33:24;;;;;;;;;;;;;;;21.64;100.00;98365.59;5051430;28;20029;-83
2021/09/10 09:35:55;;;;;;;;;;;;;;;21.85;100.00;98371.84;5029416;28;19924;-82
2021/09/10 09:38:26;;;;;;;;;;;;;;;21.64;100.00;98359.91;5064676;28;20039;-82
2021/09/10 09:40:54;;;;;;;;;;;;;;;21.59;100.00;98374.88;5061619;28;20445;-82
2021/09/10 09:43:22;;;;;;;;;;;;;;;21.75;100.00;98365.59;5039948;28;19925;-82
2021/09/10 09:45:53;;;;;;;;;;;;;;;21.90;100.00;98366.13;5036234;28;20384;-82
2021/09/10 09:48:21;;;;;;;;;;;;;;;21.96;100.00;98369.75;5051251;28;19935;-82
2021/09/10 09:50:49;;;;;;;;;;;;;;;21.81;100.00;98366.38;5065197;28;19924;-82
2021/09/10 09:53:17;;;;;;;;;;;;;;;21.91;100.00;98367.72;5050163;28;19974;-85
2021/09/10 09:55:45;;;;;;;;;;;;;;;22.08;100.00;98371.34;5035376;28;20304;-82
2021/09/10 09:58:14;;;;;;;;;;;;;;;22.14;100.00;98363.56;5057773;28;19929;-82
2021/09/10 10:00:42;;;;;;;;;;;;;;;21.86;100.00;98367.69;5053451;28;20011;-80
2021/09/10 10:03:09;;;;;;;;;;;;;;;22.05;100.00;98372.38;5053475;28;19925;-81
2021/09/10 10:05:43;;;;;;;;;;;;;;;22.17;100.00;98373.91;5053573;28;19925;-81
2021/09/10 10:08:12;;;;;;;;;;;;;;;22.26;100.00;98365.09;5052479;28;19928;-81
2021/09/10 10:10:41;;;;;;;;;;;;;;;22.21;100.00;98365.88;5035628;28;19971;-81
2021/09/10 10:13:11;;;;;;;;;;;;;;;22.61;100.00;98367.41;5050662;28;20016;-81
2021/09/10 10:15:43;;;;;;;;;;;;;;;22.67;100.00;98362.47;5054433;28;19924;-81
2021/09/10 10:18:10;;;;;;;;;;;;;;;22.76;100.00;98362.19;5056124;28;19935;-82
2021/09/10 10:20:47;;;;;;;;;;;;;;;22.51;100.00;98364.06;5054690;28;19929;-81
2021/09/10 10:23:33;;;;;;;;;;;;;;;22.69;100.00;98357.78;5038384;28;20384;-81
2021/09/10 10:26:07;;;;;;;;;;;;;;;22.67;100.00;98360.38;5054786;28;20464;-81
2021/09/10 10:28:45;;;;;;;;;;;;;;;22.61;100.00;98362.47;5055795;28;19947;-81
2021/09/10 10:31:44;;;;;;;;;;;;;;;22.69;100.00;98359.84;5054977;28;19925;-81
2021/09/10 10:34:11;;;;;;;;;;;;;;;22.36;100.00;98357.06;5055746;28;19935;-81
2021/09/10 10:36:38;;;;;;;;;;;;;;;22.65;100.00;98362.97;5055681;28;19925;-81
2021/09/10 10:39:08;;;;;;;;;;;;;;;22.68;100.00;98361.94;5055898;28;19925;-81
2021/09/10 10:41:50;;;;;;;;;;;;;;;23.07;100.00;98354.03;5051690;28;19929;-82
2021/09/10 10:44:31;;;;;;;;;;;;;;;23.08;100.00;98352.72;5055818;28;19982;-81
2021/09/10 10:47:02;;;;;;;;;;;;;;;23.42;100.00;98355.41;5071957;28;19928;-82
2021/09/10 10:49:33;;;;;;;;;;;;;;;23.33;100.00;98347.16;5064194;28;19978;-82
2021/09/10 10:52:01;;;;;;;;;;;;;;;23.46;100.00;98344.53;5055226;28;19932;-82
2021/09/10 10:54:29;;;;;;;;;;;;;;;23.66;100.00;98346.97;5055578;28;19932;-82
2021/09/10 10:57:00;;;;;;;;;;;;;;;23.71;100.00;98349.00;5069416;28;19929;-82
2021/09/10 10:59:27;;;;;;;;;;;;;;;23.28;100.00;98345.91;5075456;28;19928;-82
2021/09/10 11:02:15;;;;;;;;;;;;;;;23.16;100.00;98344.38;5043843;28;19931;-82
2021/09/10 11:04:45;;;;;;;;;;;;;;;23.35;100.00;98344.56;5074183;28;19925;-82
2021/09/10 11:07:12;;;;;;;;;;;;;;;23.93;100.00;98348.84;5041206;28;19960;-82
2021/09/10 11:09:40;;;;;;;;;;;;;;;23.77;100.00;98332.63;5063712;28;19924;-82
2021/09/10 11:12:07;;;;;;;;;;;;;;;23.21;100.00;98331.41;5074323;28;19943;-82
2021/09/10 11:14:37;;;;;;;;;;;;;;;22.94;100.00;98347.34;5060816;28;20027;-82
2021/09/10 11:17:11;;;;;;;;;;;;;;;22.71;100.00;98343.03;5060685;28;19928;-82
2021/09/10 11:19:43;;;;;;;;;;;;;;;22.88;100.00;98344.53;5047780;28;19978;-82
2021/09/10 11:22:10;;;;;;;;;;;;;;;23.27;100.00;98349.28;5075134;28;20027;-82
2021/09/10 11:24:37;;;;;;;;;;;;;;;23.11;100.00;98345.97;5073079;28;20338;-82
2021/09/10 11:27:23;;;;;;;;;;;;;;;22.91;100.00;98340.63;5062140;28;19952;-82
2021/09/10 11:29:50;;;;;;;;;;;;;;;23.79;100.00;98344.28;5040448;28;20020;-82
2021/09/10 11:32:20;;;;;;;;;;;;;;;24.08;100.00;98335.75;5053644;28;19979;-82
2021/09/10 11:34:47;;;;;;;;;;;;;;;24.14;100.00;98338.56;5054420;28;19935;-82
2021/09/10 11:37:23;;;;;;;;;;;;;;;23.94;100.00;98336.13;5067412;28;20129;-82
2021/09/10 11:39:50;;;;;;;;;;;;;;;24.11;100.00;98331.84;5055162;28;19925;-82
2021/09/10 11:42:33;;;;;;;;;;;;;;;24.07;100.00;98342.78;5065639;28;19971;-82
2021/09/10 11:45:09;;;;;;;;;;;;;;;24.27;100.00;98333.78;5052757;28;19925;-82
2021/09/10 11:47:37;;;;;;;;;;;;;;;24.09;100.00;98334.47;5054536;28;19924;-82
2021/09/10 11:50:08;;;;;;;;;;;;;;;24.27;100.00;98333.78;5051866;28;19924;-83
2021/09/10 11:52:39;;;;;;;;;;;;;;;24.47;100.00;98332.53;5074768;28;20016;-82
2021/09/10 11:55:10;;;;;;;;;;;;;;;24.68;100.00;98339.34;5026332;28;20472;-82
2021/09/10 11:57:38;;;;;;;;;;;;;;;24.52;100.00;98328.84;5066066;28;20359;-82
2021/09/10 12:00:08;;;;;;;;;;;;;;;24.42;100.00;98322.72;5053093;28;20422;-82
2021/09/10 12:02:39;;;;;;;;;;;;;;;24.45;100.00;98320.88;5039855;28;19975;-82
2021/09/10 12:05:12;;;;;;;;;;;;;;;24.38;100.00;98316.53;5052874;28;19983;-83
2021/09/10 12:07:48;;;;;;;;;;;;;;;24.53;100.00;98313.25;5036678;28;19924;-80
2021/09/10 12:10:32;;;;;;;;;;;;;;;24.84;100.00;98309.78;5052938;28;20030;-85
2021/09/10 12:13:14;;;;;;;;;;;;;;;24.47;100.00;98315.41;5036397;28;20344;-85
2021/09/10 12:15:44;;;;;;;;;;;;;;;24.69;100.00;98323.75;5067688;28;20016;-84
2021/09/10 12:18:14;;;;;;;;;;;;;;;24.78;100.00;98321.28;5039982;28;20023;-83
2021/09/10 12:20:51;;;;;;;;;;;;;;;24.31;100.00;98322.81;5056804;28;20379;-82
2021/09/10 12:23:20;;;;;;;;;;;;;;;24.70;100.00;98322.44;5039636;28;20383;-82
2021/09/10 12:25:59;;;;;;;;;;;;;;;24.56;100.00;98315.03;5072372;28;19924;-82
2021/09/10 12:28:29;;;;;;;;;;;;;;;24.22;100.00;98330.97;5061855;28;20030;-82
2021/09/10 12:30:57;;;;;;;;;;;;;;;23.89;100.00;98322.66;5059509;28;20041;-82
2021/09/10 12:33:27;;;;;;;;;;;;;;;23.65;100.00;98331.16;5034932;28;19932;-82
2021/09/10 12:36:00;;;;;;;;;;;;;;;23.94;100.00;98327.56;5051924;28;20413;-82
2021/09/10 12:38:30;;;;;;;;;;;;;;;24.05;100.00;98322.56;5070623;28;19924;-82
2021/09/10 12:40:58;;;;;;;;;;;;;;;24.21;100.00;98323.72;5045871;28;19931;-82
2021/09/10 12:43:26;;;;;;;;;;;;;;;24.59;100.00;98329.03;5052367;28;20010;-82
2021/09/10 12:45:54;;;;;;;;;;;;;;;24.66;100.00;98336.25;5032307;28;19960;-82